This is the latest recevied weather packets stored in our database for station/object PY1LEO-13. If no packets are shown the sender has not sent any weather packets the latest 10 day(s).
| Time | Temp. | Humidity | Pressure | Rain* | Wind** | Luminosity | Snow |
|---|---|---|---|---|---|---|---|
| 1777909564 | 28.33° C | 49% | 1020.7 hPa | - | - | - | - |
| 1777909264 | 27.78° C | 51% | 1020.7 hPa | - | - | - | - |
| 1777908964 | 27.78° C | 51% | 1020.8 hPa | - | - | - | - |
| 1777908665 | 27.78° C | 51% | 1020.8 hPa | - | - | - | - |
| 1777908364 | 28.33° C | 51% | 1020.9 hPa | - | - | - | - |
| 1777908064 | 27.78° C | 52% | 1021 hPa | - | - | - | - |
| 1777907764 | 27.78° C | 51% | 1021 hPa | - | - | - | - |
| 1777907464 | 27.78° C | 52% | 1021.1 hPa | - | - | - | - |
| 1777907164 | 27.22° C | 54% | 1021.2 hPa | - | - | - | - |
| 1777906865 | 27.78° C | 52% | 1021.3 hPa | - | - | - | - |
| 1777906564 | 28.33° C | 51% | 1021.3 hPa | - | - | - | - |
| 1777906264 | 27.78° C | 53% | 1021.3 hPa | - | - | - | - |
| 1777905964 | 27.78° C | 52% | 1021.3 hPa | - | - | - | - |
| 1777905664 | 28.33° C | 51% | 1021.4 hPa | - | - | - | - |
| 1777905364 | 27.78° C | 52% | 1021.5 hPa | - | - | - | - |
| 1777905064 | 27.22° C | 54% | 1021.6 hPa | - | - | - | - |
| 1777904765 | 27.22° C | 52% | 1021.6 hPa | - | - | - | - |
| 1777904464 | 27.22° C | 52% | 1021.7 hPa | - | - | - | - |
| 1777904164 | 27.22° C | 52% | 1021.7 hPa | - | - | - | - |
| 1777903864 | 27.22° C | 52% | 1021.8 hPa | - | - | - | - |
| 1777903564 | 26.67° C | 53% | 1021.9 hPa | - | - | - | - |
| 1777903264 | 27.22° C | 52% | 1021.9 hPa | - | - | - | - |
| 1777902964 | 27.78° C | 51% | 1022 hPa | - | - | - | - |
| 1777902664 | 26.11° C | 53% | 1022.1 hPa | - | - | - | - |
| 1777902364 | 26.11° C | 56% | 1022.2 hPa | - | - | - | - |
* Rain since midnight (hover to see other rain measurements)
** Current wind speed in m/s (hover to see current wind gust speed)